sensor_id;sensor_type;location;lat;lon;timestamp;P1;durP1;ratioP1;P2;durP2;ratioP2
71856;SDS011;63344;46.980;28.882;2022-12-11T00:00:50;168.90;;;32.22;;
71856;SDS011;63344;46.980;28.882;2022-12-11T00:03:38;168.20;;;27.15;;
71856;SDS011;63344;46.980;28.882;2022-12-11T00:06:06;109.05;;;27.23;;
71856;SDS011;63344;46.980;28.882;2022-12-11T00:08:35;91.10;;;26.17;;
71856;SDS011;63344;46.980;28.882;2022-12-11T00:11:02;135.48;;;37.30;;
71856;SDS011;63344;46.980;28.882;2022-12-11T00:13:29;230.80;;;45.42;;
71856;SDS011;63344;46.980;28.882;2022-12-11T00:15:57;205.93;;;46.08;;
71856;SDS011;63344;46.980;28.882;2022-12-11T00:18:25;231.82;;;36.53;;
71856;SDS011;63344;46.980;28.882;2022-12-11T00:20:52;187.85;;;41.00;;
71856;SDS011;63344;46.980;28.882;2022-12-11T00:23:19;290.48;;;44.80;;
71856;SDS011;63344;46.980;28.882;2022-12-11T00:25:46;155.90;;;27.20;;
71856;SDS011;63344;46.980;28.882;2022-12-11T00:28:15;297.13;;;40.15;;
71856;SDS011;63344;46.980;28.882;2022-12-11T00:30:48;220.88;;;34.60;;
71856;SDS011;63344;46.980;28.882;2022-12-11T00:33:16;180.48;;;28.55;;
71856;SDS011;63344;46.980;28.882;2022-12-11T00:35:44;111.18;;;22.10;;
71856;SDS011;63344;46.980;28.882;2022-12-11T00:38:14;91.45;;;20.10;;
71856;SDS011;63344;46.980;28.882;2022-12-11T00:40:42;132.13;;;26.80;;
71856;SDS011;63344;46.980;28.882;2022-12-11T00:43:10;148.27;;;27.73;;
71856;SDS011;63344;46.980;28.882;2022-12-11T00:45:42;167.18;;;30.02;;
71856;SDS011;63344;46.980;28.882;2022-12-11T00:48:12;213.43;;;32.72;;
71856;SDS011;63344;46.980;28.882;2022-12-11T00:50:39;199.05;;;29.55;;
71856;SDS011;63344;46.980;28.882;2022-12-11T00:53:07;178.10;;;28.52;;
71856;SDS011;63344;46.980;28.882;2022-12-11T00:55:35;205.20;;;29.23;;
71856;SDS011;63344;46.980;28.882;2022-12-11T00:58:05;175.00;;;27.90;;
71856;SDS011;63344;46.980;28.882;2022-12-11T01:00:33;131.93;;;26.60;;
71856;SDS011;63344;46.980;28.882;2022-12-11T01:03:00;185.48;;;25.25;;
71856;SDS011;63344;46.980;28.882;2022-12-11T01:05:28;112.00;;;22.58;;
71856;SDS011;63344;46.980;28.882;2022-12-11T01:07:57;95.07;;;17.25;;
71856;SDS011;63344;46.980;28.882;2022-12-11T01:10:25;73.10;;;18.52;;
71856;SDS011;63344;46.980;28.882;2022-12-11T01:13:03;186.63;;;27.38;;
71856;SDS011;63344;46.980;28.882;2022-12-11T01:15:40;90.75;;;18.95;;
71856;SDS011;63344;46.980;28.882;2022-12-11T01:18:10;63.67;;;15.93;;
71856;SDS011;63344;46.980;28.882;2022-12-11T01:20:40;85.15;;;17.25;;
71856;SDS011;63344;46.980;28.882;2022-12-11T01:23:09;75.60;;;18.05;;
71856;SDS011;63344;46.980;28.882;2022-12-11T01:25:38;150.90;;;23.27;;
71856;SDS011;63344;46.980;28.882;2022-12-11T01:28:07;101.55;;;17.83;;
71856;SDS011;63344;46.980;28.882;2022-12-11T01:30:34;68.90;;;13.18;;
71856;SDS011;63344;46.980;28.882;2022-12-11T01:33:02;58.92;;;10.32;;
71856;SDS011;63344;46.980;28.882;2022-12-11T01:35:30;51.88;;;11.88;;
71856;SDS011;63344;46.980;28.882;2022-12-11T01:37:57;117.20;;;18.38;;
71856;SDS011;63344;46.980;28.882;2022-12-11T01:40:24;58.90;;;10.57;;
71856;SDS011;63344;46.980;28.882;2022-12-11T01:42:52;60.20;;;12.32;;
71856;SDS011;63344;46.980;28.882;2022-12-11T01:47:57;26.27;;;9.40;;
71856;SDS011;63344;46.980;28.882;2022-12-11T01:53:39;153.00;;;17.33;;
71856;SDS011;63344;46.980;28.882;2022-12-11T01:56:11;34.95;;;10.27;;
71856;SDS011;63344;46.980;28.882;2022-12-11T01:58:40;101.53;;;15.23;;
71856;SDS011;63344;46.980;28.882;2022-12-11T02:01:34;142.93;;;18.70;;
71856;SDS011;63344;46.980;28.882;2022-12-11T02:04:01;77.45;;;11.95;;
71856;SDS011;63344;46.980;28.882;2022-12-11T02:06:48;105.88;;;17.13;;
71856;SDS011;63344;46.980;28.882;2022-12-11T02:09:26;149.25;;;18.65;;
71856;SDS011;63344;46.980;28.882;2022-12-11T02:17:28;76.85;;;13.25;;
71856;SDS011;63344;46.980;28.882;2022-12-11T02:20:27;20.38;;;7.30;;
71856;SDS011;63344;46.980;28.882;2022-12-11T02:29:10;40.03;;;12.77;;
71856;SDS011;63344;46.980;28.882;2022-12-11T02:34:36;54.08;;;11.23;;
71856;SDS011;63344;46.980;28.882;2022-12-11T02:37:15;28.95;;;10.07;;
71856;SDS011;63344;46.980;28.882;2022-12-11T02:39:48;33.50;;;10.75;;
71856;SDS011;63344;46.980;28.882;2022-12-11T02:42:20;38.58;;;10.30;;
71856;SDS011;63344;46.980;28.882;2022-12-11T02:44:52;23.17;;;8.55;;
71856;SDS011;63344;46.980;28.882;2022-12-11T02:47:23;90.13;;;17.02;;
71856;SDS011;63344;46.980;28.882;2022-12-11T02:49:54;114.10;;;20.08;;
71856;SDS011;63344;46.980;28.882;2022-12-11T02:52:24;66.25;;;13.73;;
71856;SDS011;63344;46.980;28.882;2022-12-11T02:54:53;57.17;;;12.80;;
71856;SDS011;63344;46.980;28.882;2022-12-11T03:00:08;161.93;;;22.10;;
71856;SDS011;63344;46.980;28.882;2022-12-11T03:02:36;139.30;;;19.88;;
71856;SDS011;63344;46.980;28.882;2022-12-11T03:05:06;105.47;;;17.73;;
71856;SDS011;63344;46.980;28.882;2022-12-11T03:07:36;50.92;;;12.98;;
71856;SDS011;63344;46.980;28.882;2022-12-11T03:10:07;48.13;;;12.73;;
71856;SDS011;63344;46.980;28.882;2022-12-11T03:12:37;67.25;;;16.20;;
71856;SDS011;63344;46.980;28.882;2022-12-11T03:15:13;87.55;;;13.48;;
71856;SDS011;63344;46.980;28.882;2022-12-11T03:17:55;124.65;;;17.42;;
71856;SDS011;63344;46.980;28.882;2022-12-11T03:26:29;178.05;;;22.55;;
71856;SDS011;63344;46.980;28.882;2022-12-11T03:29:03;263.55;;;26.65;;
71856;SDS011;63344;46.980;28.882;2022-12-11T03:31:50;164.00;;;22.98;;
71856;SDS011;63344;46.980;28.882;2022-12-11T03:34:27;115.50;;;21.17;;
71856;SDS011;63344;46.980;28.882;2022-12-11T03:36:59;81.32;;;15.38;;
71856;SDS011;63344;46.980;28.882;2022-12-11T03:39:30;61.50;;;14.88;;
71856;SDS011;63344;46.980;28.882;2022-12-11T03:42:02;66.78;;;13.73;;
71856;SDS011;63344;46.980;28.882;2022-12-11T03:44:34;69.70;;;14.82;;
71856;SDS011;63344;46.980;28.882;2022-12-11T03:47:04;137.18;;;19.33;;
71856;SDS011;63344;46.980;28.882;2022-12-11T03:49:35;61.55;;;10.85;;
71856;SDS011;63344;46.980;28.882;2022-12-11T03:52:06;77.25;;;13.65;;
71856;SDS011;63344;46.980;28.882;2022-12-11T03:54:35;89.18;;;13.77;;
71856;SDS011;63344;46.980;28.882;2022-12-11T03:57:05;49.75;;;9.63;;
71856;SDS011;63344;46.980;28.882;2022-12-11T03:59:35;111.20;;;15.25;;
71856;SDS011;63344;46.980;28.882;2022-12-11T04:02:02;104.85;;;16.02;;
71856;SDS011;63344;46.980;28.882;2022-12-11T04:04:37;178.70;;;17.95;;
71856;SDS011;63344;46.980;28.882;2022-12-11T04:07:05;210.18;;;26.00;;
71856;SDS011;63344;46.980;28.882;2022-12-11T04:09:34;127.78;;;16.10;;
71856;SDS011;63344;46.980;28.882;2022-12-11T04:12:01;109.05;;;15.00;;
71856;SDS011;63344;46.980;28.882;2022-12-11T04:14:29;160.27;;;20.08;;
71856;SDS011;63344;46.980;28.882;2022-12-11T04:17:15;196.30;;;22.17;;
71856;SDS011;63344;46.980;28.882;2022-12-11T04:20:03;186.57;;;21.17;;
71856;SDS011;63344;46.980;28.882;2022-12-11T04:22:49;181.27;;;22.55;;
71856;SDS011;63344;46.980;28.882;2022-12-11T04:25:35;153.45;;;20.88;;
71856;SDS011;63344;46.980;28.882;2022-12-11T04:28:02;210.65;;;24.52;;
71856;SDS011;63344;46.980;28.882;2022-12-11T04:30:30;226.73;;;23.50;;
71856;SDS011;63344;46.980;28.882;2022-12-11T04:32:59;173.88;;;21.83;;
71856;SDS011;63344;46.980;28.882;2022-12-11T04:35:27;155.02;;;20.25;;
71856;SDS011;63344;46.980;28.882;2022-12-11T04:37:55;88.13;;;16.13;;
71856;SDS011;63344;46.980;28.882;2022-12-11T04:40:22;130.20;;;15.90;;
71856;SDS011;63344;46.980;28.882;2022-12-11T04:42:50;97.00;;;14.10;;
71856;SDS011;63344;46.980;28.882;2022-12-11T04:45:20;171.73;;;21.05;;
71856;SDS011;63344;46.980;28.882;2022-12-11T04:47:47;192.50;;;22.17;;
71856;SDS011;63344;46.980;28.882;2022-12-11T04:50:15;257.15;;;26.27;;
71856;SDS011;63344;46.980;28.882;2022-12-11T04:52:42;184.88;;;24.05;;
71856;SDS011;63344;46.980;28.882;2022-12-11T04:55:10;317.30;;;30.92;;
71856;SDS011;63344;46.980;28.882;2022-12-11T04:57:38;167.73;;;21.48;;
71856;SDS011;63344;46.980;28.882;2022-12-11T05:00:08;98.13;;;16.30;;
71856;SDS011;63344;46.980;28.882;2022-12-11T05:02:36;159.00;;;22.23;;
71856;SDS011;63344;46.980;28.882;2022-12-11T05:05:05;99.78;;;15.25;;
71856;SDS011;63344;46.980;28.882;2022-12-11T05:07:36;54.63;;;12.32;;
71856;SDS011;63344;46.980;28.882;2022-12-11T05:10:04;143.05;;;17.60;;
71856;SDS011;63344;46.980;28.882;2022-12-11T05:12:37;76.75;;;14.57;;
71856;SDS011;63344;46.980;28.882;2022-12-11T05:15:05;43.08;;;10.38;;
71856;SDS011;63344;46.980;28.882;2022-12-11T05:17:38;89.43;;;17.10;;
71856;SDS011;63344;46.980;28.882;2022-12-11T05:20:09;44.03;;;11.63;;
71856;SDS011;63344;46.980;28.882;2022-12-11T05:22:37;40.25;;;12.63;;
71856;SDS011;63344;46.980;28.882;2022-12-11T05:25:05;81.32;;;17.95;;
71856;SDS011;63344;46.980;28.882;2022-12-11T05:27:32;101.57;;;19.08;;
71856;SDS011;63344;46.980;28.882;2022-12-11T05:30:06;71.50;;;18.88;;
71856;SDS011;63344;46.980;28.882;2022-12-11T05:32:34;52.38;;;15.98;;
71856;SDS011;63344;46.980;28.882;2022-12-11T05:35:01;50.42;;;13.75;;
71856;SDS011;63344;46.980;28.882;2022-12-11T05:37:31;83.90;;;20.67;;
71856;SDS011;63344;46.980;28.882;2022-12-11T05:40:05;94.45;;;23.63;;
71856;SDS011;63344;46.980;28.882;2022-12-11T05:42:45;70.97;;;18.20;;
71856;SDS011;63344;46.980;28.882;2022-12-11T05:45:13;93.20;;;23.70;;
71856;SDS011;63344;46.980;28.882;2022-12-11T05:47:41;95.47;;;21.05;;
71856;SDS011;63344;46.980;28.882;2022-12-11T05:50:08;63.28;;;16.42;;
71856;SDS011;63344;46.980;28.882;2022-12-11T05:52:36;96.65;;;21.92;;
71856;SDS011;63344;46.980;28.882;2022-12-11T05:55:04;112.10;;;24.73;;
71856;SDS011;63344;46.980;28.882;2022-12-11T05:57:36;69.40;;;17.65;;
71856;SDS011;63344;46.980;28.882;2022-12-11T06:00:05;57.90;;;14.95;;
71856;SDS011;63344;46.980;28.882;2022-12-11T06:02:35;108.50;;;25.33;;
71856;SDS011;63344;46.980;28.882;2022-12-11T06:05:08;111.80;;;28.30;;
71856;SDS011;63344;46.980;28.882;2022-12-11T06:07:36;96.40;;;24.63;;
71856;SDS011;63344;46.980;28.882;2022-12-11T06:10:04;97.13;;;24.38;;
71856;SDS011;63344;46.980;28.882;2022-12-11T06:12:33;111.90;;;25.55;;
71856;SDS011;63344;46.980;28.882;2022-12-11T06:15:15;91.35;;;22.92;;
71856;SDS011;63344;46.980;28.882;2022-12-11T06:17:43;115.55;;;25.83;;
71856;SDS011;63344;46.980;28.882;2022-12-11T06:20:11;97.45;;;24.75;;
71856;SDS011;63344;46.980;28.882;2022-12-11T06:22:39;100.95;;;25.98;;
71856;SDS011;63344;46.980;28.882;2022-12-11T06:25:07;84.32;;;21.33;;
71856;SDS011;63344;46.980;28.882;2022-12-11T06:27:36;83.97;;;21.90;;
71856;SDS011;63344;46.980;28.882;2022-12-11T06:30:18;87.82;;;23.63;;
71856;SDS011;63344;46.980;28.882;2022-12-11T06:32:59;70.68;;;19.23;;
71856;SDS011;63344;46.980;28.882;2022-12-11T06:35:29;89.72;;;25.38;;
71856;SDS011;63344;46.980;28.882;2022-12-11T06:38:06;100.72;;;25.05;;
71856;SDS011;63344;46.980;28.882;2022-12-11T06:40:38;101.75;;;24.98;;
71856;SDS011;63344;46.980;28.882;2022-12-11T06:43:20;92.45;;;23.38;;
71856;SDS011;63344;46.980;28.882;2022-12-11T06:45:47;69.45;;;20.30;;
71856;SDS011;63344;46.980;28.882;2022-12-11T06:48:14;90.05;;;26.10;;
71856;SDS011;63344;46.980;28.882;2022-12-11T06:50:42;94.45;;;24.50;;
71856;SDS011;63344;46.980;28.882;2022-12-11T06:53:11;80.13;;;21.60;;
71856;SDS011;63344;46.980;28.882;2022-12-11T06:55:44;104.63;;;25.98;;
71856;SDS011;63344;46.980;28.882;2022-12-11T06:58:14;113.88;;;26.85;;
71856;SDS011;63344;46.980;28.882;2022-12-11T07:00:42;94.72;;;26.10;;
71856;SDS011;63344;46.980;28.882;2022-12-11T07:03:09;70.60;;;21.67;;
71856;SDS011;63344;46.980;28.882;2022-12-11T07:05:37;92.55;;;24.88;;
71856;SDS011;63344;46.980;28.882;2022-12-11T07:08:06;109.60;;;26.40;;
71856;SDS011;63344;46.980;28.882;2022-12-11T07:10:36;58.28;;;20.25;;
71856;SDS011;63344;46.980;28.882;2022-12-11T07:13:06;64.32;;;21.70;;
71856;SDS011;63344;46.980;28.882;2022-12-11T07:15:34;58.55;;;20.80;;
71856;SDS011;63344;46.980;28.882;2022-12-11T07:18:06;76.53;;;24.45;;
71856;SDS011;63344;46.980;28.882;2022-12-11T07:20:34;71.47;;;22.35;;
71856;SDS011;63344;46.980;28.882;2022-12-11T07:23:02;83.22;;;23.35;;
71856;SDS011;63344;46.980;28.882;2022-12-11T07:25:30;75.93;;;24.40;;
71856;SDS011;63344;46.980;28.882;2022-12-11T07:27:57;80.82;;;24.83;;
71856;SDS011;63344;46.980;28.882;2022-12-11T07:30:25;77.78;;;23.30;;
71856;SDS011;63344;46.980;28.882;2022-12-11T07:32:53;71.72;;;23.00;;
71856;SDS011;63344;46.980;28.882;2022-12-11T07:35:21;55.10;;;18.25;;
71856;SDS011;63344;46.980;28.882;2022-12-11T07:37:48;70.68;;;24.55;;
71856;SDS011;63344;46.980;28.882;2022-12-11T07:40:16;62.97;;;22.70;;
71856;SDS011;63344;46.980;28.882;2022-12-11T07:42:44;67.68;;;22.88;;
71856;SDS011;63344;46.980;28.882;2022-12-11T07:45:16;64.10;;;21.85;;
71856;SDS011;63344;46.980;28.882;2022-12-11T07:47:44;57.13;;;21.33;;
71856;SDS011;63344;46.980;28.882;2022-12-11T07:50:13;58.20;;;21.30;;
71856;SDS011;63344;46.980;28.882;2022-12-11T07:52:40;59.03;;;22.27;;
71856;SDS011;63344;46.980;28.882;2022-12-11T07:55:25;55.35;;;20.10;;
71856;SDS011;63344;46.980;28.882;2022-12-11T07:57:53;53.85;;;20.08;;
71856;SDS011;63344;46.980;28.882;2022-12-11T08:00:20;53.60;;;20.65;;
71856;SDS011;63344;46.980;28.882;2022-12-11T08:02:52;57.08;;;21.33;;
71856;SDS011;63344;46.980;28.882;2022-12-11T08:05:19;48.05;;;19.63;;
71856;SDS011;63344;46.980;28.882;2022-12-11T08:07:46;42.63;;;19.23;;
71856;SDS011;63344;46.980;28.882;2022-12-11T08:10:33;44.65;;;18.73;;
71856;SDS011;63344;46.980;28.882;2022-12-11T08:13:01;42.80;;;17.80;;
71856;SDS011;63344;46.980;28.882;2022-12-11T08:15:28;49.33;;;18.38;;
71856;SDS011;63344;46.980;28.882;2022-12-11T08:17:56;36.72;;;14.65;;
71856;SDS011;63344;46.980;28.882;2022-12-11T08:20:23;40.55;;;18.35;;
71856;SDS011;63344;46.980;28.882;2022-12-11T08:22:53;43.92;;;17.85;;
71856;SDS011;63344;46.980;28.882;2022-12-11T08:25:25;41.70;;;15.57;;
71856;SDS011;63344;46.980;28.882;2022-12-11T08:28:06;30.98;;;14.10;;
71856;SDS011;63344;46.980;28.882;2022-12-11T08:30:37;41.90;;;15.90;;
71856;SDS011;63344;46.980;28.882;2022-12-11T08:33:09;32.85;;;12.68;;
71856;SDS011;63344;46.980;28.882;2022-12-11T08:35:38;36.72;;;13.18;;
71856;SDS011;63344;46.980;28.882;2022-12-11T08:38:07;35.25;;;16.17;;
71856;SDS011;63344;46.980;28.882;2022-12-11T08:40:34;34.28;;;16.38;;
71856;SDS011;63344;46.980;28.882;2022-12-11T08:43:02;41.45;;;16.05;;
71856;SDS011;63344;46.980;28.882;2022-12-11T08:45:32;33.08;;;13.90;;
71856;SDS011;63344;46.980;28.882;2022-12-11T08:48:03;33.72;;;15.05;;
71856;SDS011;63344;46.980;28.882;2022-12-11T08:50:30;32.63;;;15.60;;
71856;SDS011;63344;46.980;28.882;2022-12-11T08:52:57;36.05;;;16.10;;
71856;SDS011;63344;46.980;28.882;2022-12-11T08:55:25;34.83;;;15.55;;
71856;SDS011;63344;46.980;28.882;2022-12-11T08:57:52;31.90;;;14.57;;
71856;SDS011;63344;46.980;28.882;2022-12-11T09:00:23;36.55;;;14.00;;
71856;SDS011;63344;46.980;28.882;2022-12-11T09:02:51;28.33;;;12.43;;
71856;SDS011;63344;46.980;28.882;2022-12-11T09:05:21;32.35;;;13.65;;
71856;SDS011;63344;46.980;28.882;2022-12-11T09:07:48;31.80;;;13.90;;
71856;SDS011;63344;46.980;28.882;2022-12-11T09:10:16;29.58;;;13.40;;
71856;SDS011;63344;46.980;28.882;2022-12-11T09:12:43;33.58;;;13.45;;
71856;SDS011;63344;46.980;28.882;2022-12-11T09:15:11;35.20;;;13.23;;
71856;SDS011;63344;46.980;28.882;2022-12-11T09:17:38;28.38;;;13.20;;
71856;SDS011;63344;46.980;28.882;2022-12-11T09:20:06;28.60;;;12.50;;
71856;SDS011;63344;46.980;28.882;2022-12-11T09:22:33;27.00;;;11.82;;
71856;SDS011;63344;46.980;28.882;2022-12-11T09:25:02;30.48;;;13.38;;
71856;SDS011;63344;46.980;28.882;2022-12-11T09:27:33;30.73;;;12.82;;
71856;SDS011;63344;46.980;28.882;2022-12-11T09:30:01;28.67;;;11.85;;
71856;SDS011;63344;46.980;28.882;2022-12-11T09:32:28;26.50;;;11.15;;
71856;SDS011;63344;46.980;28.882;2022-12-11T09:34:56;32.05;;;11.88;;
71856;SDS011;63344;46.980;28.882;2022-12-11T09:37:23;28.08;;;11.18;;
71856;SDS011;63344;46.980;28.882;2022-12-11T09:39:52;23.05;;;11.60;;
71856;SDS011;63344;46.980;28.882;2022-12-11T09:42:52;26.75;;;11.50;;
71856;SDS011;63344;46.980;28.882;2022-12-11T09:48:38;21.50;;;9.55;;
71856;SDS011;63344;46.980;28.882;2022-12-11T09:54:16;26.38;;;10.73;;
71856;SDS011;63344;46.980;28.882;2022-12-11T10:02:14;25.25;;;9.93;;
71856;SDS011;63344;46.980;28.882;2022-12-11T10:05:36;29.42;;;9.77;;
71856;SDS011;63344;46.980;28.882;2022-12-11T10:14:34;24.77;;;11.18;;
71856;SDS011;63344;46.980;28.882;2022-12-11T10:17:19;28.15;;;10.23;;
71856;SDS011;63344;46.980;28.882;2022-12-11T10:23:01;22.25;;;9.45;;
71856;SDS011;63344;46.980;28.882;2022-12-11T10:25:35;33.28;;;10.70;;
71856;SDS011;63344;46.980;28.882;2022-12-11T10:28:12;22.55;;;11.23;;
71856;SDS011;63344;46.980;28.882;2022-12-11T10:30:49;32.63;;;9.98;;
71856;SDS011;63344;46.980;28.882;2022-12-11T10:33:33;28.65;;;9.68;;
71856;SDS011;63344;46.980;28.882;2022-12-11T10:36:07;28.08;;;10.48;;
71856;SDS011;63344;46.980;28.882;2022-12-11T10:38:55;21.38;;;9.88;;
71856;SDS011;63344;46.980;28.882;2022-12-11T10:41:30;32.30;;;10.43;;
71856;SDS011;63344;46.980;28.882;2022-12-11T10:44:20;25.40;;;9.25;;
71856;SDS011;63344;46.980;28.882;2022-12-11T10:47:02;19.88;;;8.77;;
71856;SDS011;63344;46.980;28.882;2022-12-11T10:49:38;26.33;;;8.82;;
71856;SDS011;63344;46.980;28.882;2022-12-11T10:54:55;24.77;;;8.80;;
71856;SDS011;63344;46.980;28.882;2022-12-11T10:57:31;29.10;;;9.52;;
71856;SDS011;63344;46.980;28.882;2022-12-11T11:00:02;25.08;;;9.63;;
71856;SDS011;63344;46.980;28.882;2022-12-11T11:02:36;38.03;;;10.38;;
71856;SDS011;63344;46.980;28.882;2022-12-11T11:05:16;20.42;;;9.52;;
71856;SDS011;63344;46.980;28.882;2022-12-11T11:08:17;22.00;;;8.50;;
71856;SDS011;63344;46.980;28.882;2022-12-11T11:10:57;23.73;;;8.82;;
71856;SDS011;63344;46.980;28.882;2022-12-11T11:13:29;23.95;;;8.98;;
71856;SDS011;63344;46.980;28.882;2022-12-11T11:16:00;21.48;;;8.75;;
71856;SDS011;63344;46.980;28.882;2022-12-11T11:18:40;20.52;;;7.90;;
71856;SDS011;63344;46.980;28.882;2022-12-11T11:21:15;20.27;;;9.15;;
71856;SDS011;63344;46.980;28.882;2022-12-11T11:23:45;14.02;;;6.57;;
71856;SDS011;63344;46.980;28.882;2022-12-11T11:26:19;21.00;;;8.60;;
71856;SDS011;63344;46.980;28.882;2022-12-11T11:28:51;25.50;;;8.18;;
71856;SDS011;63344;46.980;28.882;2022-12-11T11:31:31;24.95;;;9.05;;
71856;SDS011;63344;46.980;28.882;2022-12-11T11:34:07;23.48;;;9.10;;
71856;SDS011;63344;46.980;28.882;2022-12-11T11:42:09;27.10;;;9.52;;
71856;SDS011;63344;46.980;28.882;2022-12-11T11:44:56;20.30;;;7.75;;
71856;SDS011;63344;46.980;28.882;2022-12-11T11:47:37;26.08;;;9.00;;
71856;SDS011;63344;46.980;28.882;2022-12-11T11:50:21;23.27;;;9.73;;
71856;SDS011;63344;46.980;28.882;2022-12-11T11:53:06;24.23;;;8.45;;
71856;SDS011;63344;46.980;28.882;2022-12-11T11:55:50;27.27;;;9.68;;
71856;SDS011;63344;46.980;28.882;2022-12-11T11:58:36;21.55;;;9.07;;
71856;SDS011;63344;46.980;28.882;2022-12-11T12:01:11;25.73;;;10.02;;
71856;SDS011;63344;46.980;28.882;2022-12-11T12:03:45;25.27;;;9.90;;
71856;SDS011;63344;46.980;28.882;2022-12-11T12:11:33;26.23;;;9.05;;
71856;SDS011;63344;46.980;28.882;2022-12-11T12:22:26;23.55;;;8.98;;
71856;SDS011;63344;46.980;28.882;2022-12-11T12:36:49;25.40;;;8.95;;
71856;SDS011;63344;46.980;28.882;2022-12-11T12:43:41;25.40;;;10.55;;
71856;SDS011;63344;46.980;28.882;2022-12-11T12:46:49;24.67;;;8.48;;
71856;SDS011;63344;46.980;28.882;2022-12-11T12:49:34;24.58;;;8.63;;
71856;SDS011;63344;46.980;28.882;2022-12-11T12:52:09;27.15;;;9.70;;
71856;SDS011;63344;46.980;28.882;2022-12-11T12:54:53;20.35;;;8.38;;
71856;SDS011;63344;46.980;28.882;2022-12-11T12:58:01;23.73;;;8.20;;
71856;SDS011;63344;46.980;28.882;2022-12-11T13:00:34;22.88;;;8.75;;
71856;SDS011;63344;46.980;28.882;2022-12-11T13:08:29;24.48;;;8.27;;
71856;SDS011;63344;46.980;28.882;2022-12-11T13:11:04;17.77;;;7.50;;
71856;SDS011;63344;46.980;28.882;2022-12-11T13:13:38;21.63;;;7.93;;
71856;SDS011;63344;46.980;28.882;2022-12-11T13:16:24;23.10;;;8.27;;
71856;SDS011;63344;46.980;28.882;2022-12-11T13:24:16;19.27;;;9.00;;
71856;SDS011;63344;46.980;28.882;2022-12-11T13:26:54;21.27;;;8.05;;
71856;SDS011;63344;46.980;28.882;2022-12-11T13:29:35;19.65;;;8.07;;
71856;SDS011;63344;46.980;28.882;2022-12-11T13:35:45;23.48;;;8.20;;
71856;SDS011;63344;46.980;28.882;2022-12-11T13:38:25;23.88;;;7.95;;
71856;SDS011;63344;46.980;28.882;2022-12-11T13:40:58;20.08;;;8.85;;
71856;SDS011;63344;46.980;28.882;2022-12-11T13:43:28;20.10;;;8.57;;
71856;SDS011;63344;46.980;28.882;2022-12-11T13:46:08;22.23;;;8.20;;
71856;SDS011;63344;46.980;28.882;2022-12-11T13:48:54;18.83;;;8.40;;
71856;SDS011;63344;46.980;28.882;2022-12-11T13:51:29;24.38;;;8.38;;
71856;SDS011;63344;46.980;28.882;2022-12-11T13:54:05;21.95;;;8.70;;
71856;SDS011;63344;46.980;28.882;2022-12-11T13:59:27;22.20;;;8.27;;
71856;SDS011;63344;46.980;28.882;2022-12-11T14:05:10;22.20;;;8.23;;
71856;SDS011;63344;46.980;28.882;2022-12-11T14:08:05;20.10;;;9.18;;
71856;SDS011;63344;46.980;28.882;2022-12-11T14:11:02;24.90;;;8.80;;
71856;SDS011;63344;46.980;28.882;2022-12-11T14:13:47;19.30;;;8.52;;
71856;SDS011;63344;46.980;28.882;2022-12-11T14:16:57;22.90;;;8.75;;
71856;SDS011;63344;46.980;28.882;2022-12-11T14:19:55;25.55;;;9.18;;
71856;SDS011;63344;46.980;28.882;2022-12-11T14:22:29;23.73;;;9.13;;
71856;SDS011;63344;46.980;28.882;2022-12-11T14:24:59;22.65;;;9.05;;
71856;SDS011;63344;46.980;28.882;2022-12-11T14:27:32;26.50;;;9.60;;
71856;SDS011;63344;46.980;28.882;2022-12-11T14:30:08;26.85;;;9.77;;
71856;SDS011;63344;46.980;28.882;2022-12-11T14:32:39;23.20;;;9.43;;
71856;SDS011;63344;46.980;28.882;2022-12-11T14:35:23;25.15;;;10.77;;
71856;SDS011;63344;46.980;28.882;2022-12-11T14:38:11;41.30;;;15.70;;
71856;SDS011;63344;46.980;28.882;2022-12-11T14:40:47;28.42;;;10.32;;
71856;SDS011;63344;46.980;28.882;2022-12-11T14:43:25;30.73;;;9.93;;
71856;SDS011;63344;46.980;28.882;2022-12-11T14:46:01;21.30;;;9.95;;
71856;SDS011;63344;46.980;28.882;2022-12-11T14:48:46;31.83;;;13.40;;
71856;SDS011;63344;46.980;28.882;2022-12-11T14:51:29;33.67;;;13.38;;
71856;SDS011;63344;46.980;28.882;2022-12-11T14:54:06;37.15;;;14.52;;
71856;SDS011;63344;46.980;28.882;2022-12-11T14:56:48;38.05;;;15.73;;
71856;SDS011;63344;46.980;28.882;2022-12-11T14:59:20;35.92;;;15.88;;
71856;SDS011;63344;46.980;28.882;2022-12-11T15:02:01;21.40;;;9.18;;
71856;SDS011;63344;46.980;28.882;2022-12-11T15:07:33;46.33;;;19.42;;
71856;SDS011;63344;46.980;28.882;2022-12-11T15:10:28;40.42;;;19.38;;
71856;SDS011;63344;46.980;28.882;2022-12-11T15:13:08;42.47;;;16.38;;
71856;SDS011;63344;46.980;28.882;2022-12-11T15:15:42;39.50;;;18.17;;
71856;SDS011;63344;46.980;28.882;2022-12-11T15:18:16;40.22;;;15.40;;
71856;SDS011;63344;46.980;28.882;2022-12-11T15:20:57;32.30;;;13.35;;
71856;SDS011;63344;46.980;28.882;2022-12-11T15:23:29;36.25;;;16.73;;
71856;SDS011;63344;46.980;28.882;2022-12-11T15:28:42;36.05;;;12.93;;
71856;SDS011;63344;46.980;28.882;2022-12-11T15:31:26;30.58;;;14.85;;
71856;SDS011;63344;46.980;28.882;2022-12-11T15:34:00;34.60;;;13.48;;
71856;SDS011;63344;46.980;28.882;2022-12-11T15:36:32;31.20;;;13.02;;
71856;SDS011;63344;46.980;28.882;2022-12-11T15:39:02;34.63;;;14.75;;
71856;SDS011;63344;46.980;28.882;2022-12-11T15:41:34;39.35;;;14.80;;
71856;SDS011;63344;46.980;28.882;2022-12-11T15:44:08;37.38;;;14.38;;
71856;SDS011;63344;46.980;28.882;2022-12-11T15:46:46;27.33;;;13.50;;
71856;SDS011;63344;46.980;28.882;2022-12-11T15:49:44;40.65;;;15.10;;
71856;SDS011;63344;46.980;28.882;2022-12-11T15:52:15;55.13;;;20.75;;
71856;SDS011;63344;46.980;28.882;2022-12-11T15:54:44;50.88;;;21.60;;
71856;SDS011;63344;46.980;28.882;2022-12-11T15:57:13;43.08;;;18.23;;
71856;SDS011;63344;46.980;28.882;2022-12-11T15:59:48;48.03;;;19.17;;
71856;SDS011;63344;46.980;28.882;2022-12-11T16:02:37;45.13;;;18.98;;
71856;SDS011;63344;46.980;28.882;2022-12-11T16:05:36;43.83;;;17.73;;
71856;SDS011;63344;46.980;28.882;2022-12-11T16:08:04;23.73;;;12.00;;
71856;SDS011;63344;46.980;28.882;2022-12-11T16:10:32;36.78;;;11.68;;
71856;SDS011;63344;46.980;28.882;2022-12-11T16:13:06;28.27;;;11.98;;
71856;SDS011;63344;46.980;28.882;2022-12-11T16:16:03;33.15;;;12.43;;
71856;SDS011;63344;46.980;28.882;2022-12-11T16:18:34;27.95;;;13.52;;
71856;SDS011;63344;46.980;28.882;2022-12-11T16:21:04;31.52;;;14.55;;
71856;SDS011;63344;46.980;28.882;2022-12-11T16:23:32;32.63;;;13.43;;
71856;SDS011;63344;46.980;28.882;2022-12-11T16:26:04;37.97;;;15.60;;
71856;SDS011;63344;46.980;28.882;2022-12-11T16:28:33;33.40;;;14.60;;
71856;SDS011;63344;46.980;28.882;2022-12-11T16:31:01;34.10;;;14.23;;
71856;SDS011;63344;46.980;28.882;2022-12-11T16:33:30;33.72;;;14.15;;
71856;SDS011;63344;46.980;28.882;2022-12-11T16:36:17;36.25;;;12.93;;
71856;SDS011;63344;46.980;28.882;2022-12-11T16:38:48;33.10;;;12.95;;